Time;durP1;ratioP1;P1;durP2;ratioP2;P2;SDS_P1;SDS_P2;PMS_P1;PMS_P2;Temp;Humidity;BMP_temperature;BMP_pressure;BME280_temperature;BME280_humidity;BME280_pressure;Samples;Min_cycle;Max_cycle;Signal;HPM_P1;HPM_P2
2021/10/22 00:02:42;;;;;;;;;2.00;2.00;;;;;16.75;31.34;97982.41;7702683;22;97323;-64
2021/10/22 00:05:47;;;;;;;;;2.00;2.00;;;;;16.91;31.20;97990.44;7673362;22;97638;-63
2021/10/22 00:08:50;;;;;;;;;2.40;2.00;;;;;16.97;31.22;97992.00;7704013;22;96232;-64
2021/10/22 00:12:00;;;;;;;;;2.00;2.00;;;;;16.97;31.15;97998.28;7676034;22;97727;-64
2021/10/22 00:15:05;;;;;;;;;0.20;0.20;;;;;16.97;31.19;97998.28;7699644;22;96537;-64
2021/10/22 00:18:10;;;;;;;;;2.00;2.00;;;;;16.92;31.11;98001.03;7675099;22;96913;-63
2021/10/22 00:21:15;;;;;;;;;1.00;1.00;;;;;16.95;31.16;98008.66;7701466;22;96737;-62
2021/10/22 00:24:21;;;;;;;;;2.00;1.00;;;;;16.73;31.42;98010.97;7675746;22;96758;-62
2021/10/22 00:27:24;;;;;;;;;1.00;1.00;;;;;16.87;31.40;98007.34;7700510;22;96840;-64
2021/10/22 00:30:27;;;;;;;;;1.00;1.00;;;;;16.97;31.34;98009.16;7702707;22;97357;-64
2021/10/22 00:33:30;;;;;;;;;1.00;1.00;;;;;17.00;31.24;98005.06;7704789;22;96383;-62
2021/10/22 00:36:39;;;;;;;;;2.00;2.00;;;;;17.02;31.41;98002.88;7699723;22;96736;-63
2021/10/22 00:39:42;;;;;;;;;2.00;2.00;;;;;17.03;31.38;97999.88;7700133;22;97374;-63
2021/10/22 00:42:46;;;;;;;;;1.80;1.80;;;;;16.96;31.55;97990.41;7676970;22;96768;-64
2021/10/22 00:45:50;;;;;;;;;2.00;1.00;;;;;17.02;31.54;98011.03;7702412;22;97421;-64
2021/10/22 00:48:55;;;;;;;;;2.00;2.00;;;;;17.06;31.69;98006.66;7673841;22;96966;-62
2021/10/22 00:52:00;;;;;;;;;1.00;1.00;;;;;16.97;32.09;97987.38;7701045;22;97343;-62
2021/10/22 00:55:04;;;;;;;;;1.00;1.00;;;;;16.88;31.96;98002.72;7650752;22;99333;-64
2021/10/22 00:58:10;;;;;;;;;1.00;1.00;;;;;16.91;31.83;97993.19;7704389;22;97373;-62
2021/10/22 01:01:14;;;;;;;;;1.00;1.00;;;;;16.81;32.33;98004.94;7675353;22;96421;-64
2021/10/22 01:04:18;;;;;;;;;1.00;1.00;;;;;16.91;32.16;97998.63;7672948;22;97342;-64
2021/10/22 01:07:23;;;;;;;;;2.00;2.00;;;;;16.91;32.21;98009.50;7702173;22;96403;-64
2021/10/22 01:10:27;;;;;;;;;2.40;1.40;;;;;16.91;32.39;97999.41;7674412;22;96912;-64
2021/10/22 01:13:31;;;;;;;;;1.40;1.40;;;;;16.89;32.39;98010.59;7700206;22;96645;-62
2021/10/22 01:16:37;;;;;;;;;2.00;2.00;;;;;17.00;32.32;98027.69;7699270;22;96558;-64
2021/10/22 01:19:40;;;;;;;;;1.60;1.60;;;;;16.94;32.45;98019.81;7697266;22;97493;-64
2021/10/22 01:22:47;;;;;;;;;2.00;2.00;;;;;16.93;32.61;98024.44;7702347;22;97551;-64
2021/10/22 01:25:50;;;;;;;;;1.40;1.40;;;;;16.98;32.64;98013.53;7674781;22;98134;-62
2021/10/22 01:28:54;;;;;;;;;2.00;2.00;;;;;16.99;32.61;98027.94;7699145;22;96977;-63
2021/10/22 01:31:57;;;;;;;;;1.00;0.60;;;;;16.94;32.85;98028.00;7701292;22;97396;-63
2021/10/22 01:35:01;;;;;;;;;2.20;1.00;;;;;16.98;32.86;98027.13;7703726;22;96894;-63
2021/10/22 01:38:05;;;;;;;;;1.40;1.40;;;;;16.93;32.75;98026.34;7701386;22;96484;-64
2021/10/22 01:41:10;;;;;;;;;1.00;1.00;;;;;16.97;33.00;98024.69;7701090;22;96861;-64
2021/10/22 01:44:15;;;;;;;;;2.00;1.00;;;;;16.94;32.95;98020.63;7701141;22;96439;-63
2021/10/22 01:47:19;;;;;;;;;2.00;1.00;;;;;16.89;33.10;98016.03;7675190;22;96477;-63
2021/10/22 01:50:23;;;;;;;;;2.00;2.00;;;;;16.89;33.15;98018.78;7701921;22;96448;-64
2021/10/22 01:53:28;;;;;;;;;1.00;1.00;;;;;17.05;33.04;98024.91;7702022;22;97009;-63
2021/10/22 01:56:31;;;;;;;;;1.40;1.40;;;;;17.03;33.18;98018.94;7672836;22;96912;-63
2021/10/22 01:59:34;;;;;;;;;2.00;1.00;;;;;17.09;33.12;98034.13;7700409;22;97194;-64
2021/10/22 02:02:38;;;;;;;;;1.00;1.00;;;;;17.08;33.27;98027.06;7703516;22;97008;-64
2021/10/22 02:05:41;;;;;;;;;2.00;1.00;;;;;17.13;33.19;98027.03;7701190;22;96396;-63
2021/10/22 02:08:46;;;;;;;;;2.00;1.00;;;;;17.04;33.29;98017.84;7671480;22;99353;-64
2021/10/22 02:11:49;;;;;;;;;2.80;1.40;;;;;17.04;33.46;98023.28;7674606;22;97515;-64
2021/10/22 02:14:52;;;;;;;;;1.00;1.00;;;;;16.96;33.63;98023.09;7697088;22;96486;-64
2021/10/22 02:17:56;;;;;;;;;1.60;1.60;;;;;16.92;33.87;98024.72;7671782;22;98369;-62
2021/10/22 02:20:59;;;;;;;;;1.00;1.00;;;;;16.96;33.82;98023.88;7697306;22;96437;-63
2021/10/22 02:24:05;;;;;;;;;2.00;2.00;;;;;16.93;33.88;98032.63;7698985;22;96940;-62
2021/10/22 02:27:08;;;;;;;;;1.00;1.00;;;;;16.85;34.03;98031.31;7699007;22;96444;-63
2021/10/22 02:30:11;;;;;;;;;1.00;1.00;;;;;16.85;34.22;98028.59;7671120;22;97757;-63
2021/10/22 02:33:15;;;;;;;;;2.00;1.00;;;;;16.88;34.19;98036.19;7702821;22;96651;-61
2021/10/22 02:36:19;;;;;;;;;1.00;1.00;;;;;16.80;34.38;98016.94;7699712;22;96231;-62
2021/10/22 02:39:25;;;;;;;;;2.00;2.00;;;;;16.87;34.32;98023.66;7702129;22;96887;-63
2021/10/22 02:42:30;;;;;;;;;1.00;1.00;;;;;16.78;34.56;98025.38;7704083;22;96366;-63
2021/10/22 02:45:34;;;;;;;;;1.60;1.00;;;;;16.81;34.47;98019.34;7648471;22;96889;-63
2021/10/22 02:48:37;;;;;;;;;1.00;1.00;;;;;16.79;34.62;98031.63;7673642;22;97104;-63
2021/10/22 02:51:41;;;;;;;;;1.00;1.00;;;;;16.87;34.66;98036.47;7674801;22;97399;-63
2021/10/22 02:54:46;;;;;;;;;2.00;2.00;;;;;16.81;34.87;98045.78;7699881;22;96360;-63
2021/10/22 02:57:49;;;;;;;;;1.25;1.00;;;;;16.76;34.99;98051.25;7675116;22;99493;-62
2021/10/22 03:00:54;;;;;;;;;1.80;1.80;;;;;16.71;35.03;98045.84;7699112;22;97394;-62
2021/10/22 03:03:57;;;;;;;;;2.00;1.50;;;;;16.62;35.29;98051.03;7701915;22;96486;-61
2021/10/22 03:07:01;;;;;;;;;1.60;1.60;;;;;16.65;35.30;98060.56;7701538;22;96393;-63
2021/10/22 03:10:07;;;;;;;;;1.00;1.00;;;;;16.67;35.38;98066.53;7699023;22;97165;-62
2021/10/22 03:13:12;;;;;;;;;1.00;1.00;;;;;16.65;35.15;98066.00;7699361;22;97424;-61
2021/10/22 03:16:15;;;;;;;;;1.00;1.00;;;;;16.66;35.27;98068.47;7700128;22;96946;-62
2021/10/22 03:19:19;;;;;;;;;1.25;1.00;;;;;16.72;35.26;98085.56;7701165;22;97140;-63
2021/10/22 03:22:22;;;;;;;;;1.00;1.00;;;;;16.72;35.42;98091.00;7702631;22;96329;-62
2021/10/22 03:25:27;;;;;;;;;2.00;1.40;;;;;16.84;35.20;98097.75;7701436;22;97377;-63
2021/10/22 03:28:30;;;;;;;;;1.00;1.00;;;;;16.84;35.23;98105.09;7672622;22;96418;-62
2021/10/22 03:31:36;;;;;;;;;1.00;1.00;;;;;16.71;35.58;98103.00;7698532;22;97249;-63
2021/10/22 03:34:40;;;;;;;;;1.00;1.00;;;;;16.85;35.40;98106.72;7670984;22;97845;-62
2021/10/22 03:37:46;;;;;;;;;2.00;1.00;;;;;16.85;35.56;98113.00;7645509;22;97674;-62
2021/10/22 03:40:50;;;;;;;;;2.00;2.00;;;;;16.83;35.71;98130.69;7674610;22;97315;-61
2021/10/22 03:43:54;;;;;;;;;2.50;2.00;;;;;16.87;35.82;98145.34;7702408;22;97339;-63
2021/10/22 03:46:57;;;;;;;;;2.00;2.00;;;;;16.80;36.04;98142.97;7676423;22;97098;-62
2021/10/22 03:50:00;;;;;;;;;1.60;1.60;;;;;16.95;35.80;98154.88;7673667;22;97150;-62
2021/10/22 03:53:04;;;;;;;;;2.00;1.80;;;;;17.05;35.74;98161.06;7701406;22;97301;-62
2021/10/22 03:56:12;;;;;;;;;2.00;1.00;;;;;17.10;35.68;98163.78;7674551;22;96509;-62
2021/10/22 03:59:16;;;;;;;;;2.50;2.50;;;;;17.13;35.78;98173.28;7700109;22;96463;-62
2021/10/22 04:02:19;;;;;;;;;2.00;2.00;;;;;17.18;35.84;98168.63;7703218;22;96538;-62
2021/10/22 04:05:23;;;;;;;;;2.00;2.00;;;;;17.27;35.78;98180.53;7699426;22;97929;-62
2021/10/22 04:08:26;;;;;;;;;3.00;2.40;;;;;17.36;35.72;98171.75;7674215;22;97094;-63
2021/10/22 04:11:31;;;;;;;;;2.00;2.00;;;;;17.31;35.82;98181.59;7672206;22;97045;-62
2021/10/22 04:14:35;;;;;;;;;2.00;2.00;;;;;17.24;35.81;98180.31;7697812;22;97369;-62
2021/10/22 04:17:38;;;;;;;;;1.60;1.00;;;;;17.23;35.82;98190.38;7701587;22;96850;-64
2021/10/22 04:20:43;;;;;;;;;1.20;1.00;;;;;17.16;35.91;98199.94;7702137;22;97452;-63
2021/10/22 04:23:46;;;;;;;;;1.40;1.40;;;;;17.14;35.80;98199.41;7699867;22;97790;-62
2021/10/22 04:26:51;;;;;;;;;1.80;1.20;;;;;17.07;35.88;98207.88;7697676;22;97365;-63
2021/10/22 04:29:55;;;;;;;;;2.00;2.00;;;;;17.20;35.64;98211.94;7700827;22;97386;-63
2021/10/22 04:32:58;;;;;;;;;1.00;1.00;;;;;17.18;36.02;98205.94;7670678;22;98395;-62
2021/10/22 04:36:01;;;;;;;;;2.00;2.00;;;;;17.09;35.78;98207.63;7696210;22;96448;-63
2021/10/22 04:42:27;;;;;;;;;2.00;2.00;;;;;16.91;35.94;98214.50;7695862;22;97447;-62
2021/10/22 04:45:31;;;;;;;;;1.00;1.00;;;;;16.70;35.98;98204.78;7698817;22;96842;-64
2021/10/22 04:48:35;;;;;;;;;2.40;2.00;;;;;16.69;36.17;98227.66;7670991;22;96764;-63
2021/10/22 04:51:38;;;;;;;;;2.00;2.00;;;;;16.68;36.20;98232.28;7698680;22;97068;-63
2021/10/22 04:54:42;;;;;;;;;2.00;1.00;;;;;16.48;36.45;98233.13;7699149;22;96483;-64
2021/10/22 04:57:53;;;;;;;;;1.00;1.00;;;;;16.40;36.65;98244.56;7648544;22;99406;-63
2021/10/22 05:00:57;;;;;;;;;1.00;1.00;;;;;16.39;36.81;98233.94;7699306;22;97354;-63
2021/10/22 05:04:00;;;;;;;;;2.00;1.40;;;;;16.38;36.87;98245.91;7672222;22;96555;-62
2021/10/22 05:07:04;;;;;;;;;1.00;1.00;;;;;16.25;37.35;98252.75;7671073;22;96507;-63
2021/10/22 05:10:09;;;;;;;;;2.00;2.00;;;;;16.29;37.23;98255.72;7673284;22;96800;-62
2021/10/22 05:13:13;;;;;;;;;2.00;2.00;;;;;16.29;37.22;98258.44;7673201;22;96569;-64
2021/10/22 05:16:17;;;;;;;;;2.00;2.00;;;;;16.22;37.48;98257.94;7703182;22;99389;-63
2021/10/22 05:19:20;;;;;;;;;3.00;3.00;;;;;16.21;37.39;98267.16;7671536;22;96639;-62
2021/10/22 05:22:23;;;;;;;;;2.00;2.00;;;;;16.13;37.61;98271.22;7700625;22;96471;-63
2021/10/22 05:25:26;;;;;;;;;1.00;1.00;;;;;16.17;37.50;98272.34;7697986;22;96926;-63
2021/10/22 05:28:31;;;;;;;;;1.80;1.00;;;;;16.16;37.68;98284.31;7698368;22;96553;-63
2021/10/22 05:31:35;;;;;;;;;2.25;1.25;;;;;16.21;37.87;98297.91;7671123;22;97709;-62
2021/10/22 05:34:38;;;;;;;;;2.00;2.00;;;;;16.28;37.70;98298.44;7671298;22;98327;-64
2021/10/22 05:37:42;;;;;;;;;2.00;2.00;;;;;16.27;37.67;98302.22;7699125;22;97875;-62
2021/10/22 05:40:45;;;;;;;;;2.00;1.00;;;;;16.30;37.71;98319.91;7670840;22;97907;-64
2021/10/22 05:43:50;;;;;;;;;2.00;2.00;;;;;16.28;37.87;98325.63;7671703;22;97369;-64
2021/10/22 05:46:55;;;;;;;;;2.00;2.00;;;;;16.44;37.53;98332.72;7696877;22;96392;-63
2021/10/22 05:50:00;;;;;;;;;3.00;2.00;;;;;16.60;37.48;98344.44;7668050;22;96717;-64
2021/10/22 05:53:03;;;;;;;;;3.00;3.00;;;;;16.75;36.87;98347.13;7697162;22;97356;-63
2021/10/22 05:56:08;;;;;;;;;3.00;2.00;;;;;17.04;36.60;98349.25;7696046;22;96642;-63
2021/10/22 05:59:12;;;;;;;;;2.00;2.00;;;;;17.37;35.70;98351.31;7669779;22;96824;-62
2021/10/22 06:02:16;;;;;;;;;2.80;2.20;;;;;17.73;35.19;98366.47;7696787;22;96925;-63
2021/10/22 06:05:20;;;;;;;;;3.75;3.00;;;;;18.25;34.15;98372.41;7698147;22;96699;-64
2021/10/22 06:08:24;;;;;;;;;4.20;3.80;;;;;18.69;33.12;98375.09;7670996;22;96455;-64
2021/10/22 06:11:28;;;;;;;;;4.00;4.00;;;;;19.25;32.20;98373.44;7671694;22;96979;-64
2021/10/22 06:14:33;;;;;;;;;3.00;3.00;;;;;20.07;30.77;98385.00;7696831;22;97067;-62
2021/10/22 06:17:36;;;;;;;;;4.00;4.00;;;;;21.54;28.56;98385.28;7672013;22;97354;-62
2021/10/22 06:20:45;;;;;;;;;7.80;7.00;;;;;23.33;26.21;98387.91;7698470;22;97458;-63
2021/10/22 06:23:55;;;;;;;;;5.00;5.00;;;;;25.24;23.82;98393.31;7671529;22;97255;-63
2021/10/22 06:26:58;;;;;;;;;4.80;3.00;;;;;26.81;21.62;98389.28;7696971;22;97129;-63
2021/10/22 06:30:03;;;;;;;;;4.00;4.00;;;;;28.01;20.61;98398.94;7671688;22;96622;-63
2021/10/22 06:33:07;;;;;;;;;3.00;3.00;;;;;29.07;19.09;98406.91;7671627;22;96452;-64
2021/10/22 06:36:10;;;;;;;;;3.00;3.00;;;;;29.77;19.06;98409.94;7698106;22;97386;-64
2021/10/22 06:39:13;;;;;;;;;5.00;4.60;;;;;30.67;17.72;98414.44;7671064;22;97062;-63
2021/10/22 06:42:17;;;;;;;;;4.00;3.20;;;;;31.32;16.89;98412.59;7698282;22;96577;-64
2021/10/22 06:45:22;;;;;;;;;4.00;4.00;;;;;31.97;16.75;98413.31;7670179;22;96536;-63
2021/10/22 06:48:25;;;;;;;;;2.25;2.25;;;;;32.34;15.99;98410.75;7698046;22;96978;-63
2021/10/22 06:51:28;;;;;;;;;3.00;3.00;;;;;32.65;15.50;98424.34;7698069;22;97379;-64
2021/10/22 06:54:32;;;;;;;;;3.00;3.00;;;;;32.96;15.26;98428.72;7671943;22;96577;-63
2021/10/22 06:57:40;;;;;;;;;2.00;2.00;;;;;33.25;15.10;98420.69;7697253;22;96396;-64
2021/10/22 07:00:48;;;;;;;;;2.25;2.00;;;;;33.22;14.87;98419.47;7697902;22;96436;-63
2021/10/22 07:03:52;;;;;;;;;3.00;2.50;;;;;33.61;14.64;98433.03;7645995;22;98655;-64
2021/10/22 07:10:16;;;;;;;;;2.00;2.00;;;;;34.39;13.79;98440.09;7670880;22;96460;-63
2021/10/22 07:13:21;;;;;;;;;2.00;2.00;;;;;33.90;14.01;98449.72;7698438;22;96959;-64
2021/10/22 07:16:29;;;;;;;;;2.00;2.00;;;;;34.48;13.56;98442.53;7669525;22;96667;-64
2021/10/22 07:19:33;;;;;;;;;2.00;1.00;;;;;34.33;14.01;98428.47;7698338;22;96635;-63
2021/10/22 07:22:37;;;;;;;;;2.00;2.00;;;;;34.88;13.42;98450.00;7672764;22;97585;-64
2021/10/22 07:25:44;;;;;;;;;2.00;2.00;;;;;34.76;13.33;98459.53;7672577;22;97780;-63
2021/10/22 07:28:48;;;;;;;;;2.00;2.00;;;;;35.08;13.10;98465.28;7699340;22;96529;-63
2021/10/22 07:31:53;;;;;;;;;2.00;2.00;;;;;34.73;13.04;98457.53;7698868;22;96515;-64
2021/10/22 07:34:57;;;;;;;;;1.00;1.00;;;;;34.41;13.22;98462.88;7671506;22;99512;-63
2021/10/22 07:38:00;;;;;;;;;2.00;2.00;;;;;34.55;13.16;98462.97;7699752;22;96540;-64
2021/10/22 07:41:04;;;;;;;;;2.00;1.25;;;;;34.82;13.07;98463.56;7699861;22;96402;-64
2021/10/22 07:44:07;;;;;;;;;2.00;1.00;;;;;34.68;12.77;98460.69;7699611;22;96519;-63
2021/10/22 07:47:12;;;;;;;;;2.00;2.00;;;;;34.50;13.05;98466.16;7699831;22;96647;-64
2021/10/22 07:50:18;;;;;;;;;2.00;1.50;;;;;34.55;12.89;98467.78;7672703;22;97822;-64
2021/10/22 07:53:22;;;;;;;;;1.80;1.80;;;;;34.20;12.73;98459.97;7699726;22;96561;-64
2021/10/22 07:56:25;;;;;;;;;3.00;3.00;;;;;34.18;12.75;98462.34;7700183;22;97431;-63
2021/10/22 07:59:29;;;;;;;;;2.60;2.00;;;;;34.32;12.40;98482.03;7674312;22;97043;-62
2021/10/22 08:02:44;;;;;;;;;2.00;2.00;;;;;34.43;12.57;98476.50;7672022;22;99405;-64
2021/10/22 08:05:48;;;;;;;;;2.00;2.00;;;;;34.40;12.72;98482.88;7700390;22;96627;-65
2021/10/22 08:08:53;;;;;;;;;1.00;1.00;;;;;34.28;12.55;98484.81;7698946;22;96520;-64
2021/10/22 08:11:56;;;;;;;;;2.00;2.00;;;;;34.20;12.57;98480.34;7699746;22;97342;-65
2021/10/22 08:15:00;;;;;;;;;1.00;1.00;;;;;34.03;12.23;98494.16;7699767;22;97087;-65
2021/10/22 08:18:04;;;;;;;;;1.20;1.20;;;;;34.53;12.68;98490.56;7670916;22;98930;-64
2021/10/22 08:21:19;;;;;;;;;3.00;2.00;;;;;34.37;12.00;98498.44;7701027;22;96534;-63
2021/10/22 08:24:40;;;;;;;;;2.40;2.40;;;;;34.37;11.97;98490.06;7672828;22;96704;-64
2021/10/22 08:27:45;;;;;;;;;2.00;2.00;;;;;33.84;12.44;98486.78;7675145;22;97056;-64
2021/10/22 08:30:55;;;;;;;;;2.00;2.00;;;;;33.87;12.36;98461.66;7699399;22;97540;-63
2021/10/22 08:34:00;;;;;;;;;3.00;3.00;;;;;33.98;12.23;98483.31;7671880;22;97022;-65
2021/10/22 08:37:04;;;;;;;;;2.00;2.00;;;;;33.51;12.11;98471.69;7700870;22;97382;-64
2021/10/22 08:40:09;;;;;;;;;2.00;2.00;;;;;33.90;12.14;98476.88;7672124;22;96670;-63
2021/10/22 08:43:12;;;;;;;;;3.40;3.00;;;;;33.81;12.07;98477.19;7674502;22;96728;-63
2021/10/22 08:46:17;;;;;;;;;1.00;1.00;;;;;34.19;12.18;98483.53;7672388;22;96392;-63
2021/10/22 08:49:22;;;;;;;;;1.75;1.75;;;;;34.22;11.60;98483.53;7700102;22;97384;-64
2021/10/22 08:52:26;;;;;;;;;2.00;2.00;;;;;34.17;11.58;98477.47;7670635;22;97714;-65
2021/10/22 08:55:29;;;;;;;;;3.00;2.00;;;;;33.88;11.26;98485.63;7672120;22;99094;-63
2021/10/22 08:58:33;;;;;;;;;2.00;1.00;;;;;33.46;11.17;98485.19;7699410;22;96883;-65
2021/10/22 09:02:02;;;;;;;;;2.00;1.00;;;;;33.81;11.61;98476.38;7699269;22;96383;-63
2021/10/22 09:05:14;;;;;;;;;2.00;2.00;;;;;33.91;11.44;98481.28;7698898;22;97291;-65
2021/10/22 09:08:28;;;;;;;;;2.00;2.00;;;;;34.14;11.40;98497.84;7670809;22;97748;-63
2021/10/22 09:11:33;;;;;;;;;3.00;2.00;;;;;33.99;11.10;98496.13;7699316;22;97350;-64
2021/10/22 09:14:38;;;;;;;;;2.40;2.40;;;;;33.75;10.94;98491.91;7699554;22;97322;-65
2021/10/22 09:17:43;;;;;;;;;1.00;1.00;;;;;33.90;11.03;98493.66;7699647;22;97641;-63
2021/10/22 09:20:52;;;;;;;;;1.00;1.00;;;;;33.70;11.18;98497.84;7699885;22;97473;-65
2021/10/22 09:24:13;;;;;;;;;1.00;1.00;;;;;33.86;11.06;98498.41;7671048;22;98722;-64
2021/10/22 09:27:39;;;;;;;;;0.40;0.00;;;;;34.07;11.06;98500.56;7697239;22;96346;-65
2021/10/22 09:30:45;;;;;;;;;1.00;1.00;;;;;33.96;10.96;98497.72;7698522;22;96519;-64
2021/10/22 09:33:53;;;;;;;;;0.00;0.00;;;;;33.82;11.03;98498.34;7700581;22;96888;-64
2021/10/22 09:37:00;;;;;;;;;1.00;0.25;;;;;33.67;11.32;98518.16;7699145;22;97371;-64
2021/10/22 09:40:04;;;;;;;;;1.00;1.00;;;;;32.96;11.76;98506.09;7698978;22;97463;-64
2021/10/22 09:43:28;;;;;;;;;0.00;0.00;;;;;33.10;11.63;98511.88;7700081;22;96381;-64
2021/10/22 09:46:32;;;;;;;;;1.00;1.00;;;;;32.67;11.52;98510.50;7671201;22;96566;-65
2021/10/22 09:49:38;;;;;;;;;1.00;1.00;;;;;32.86;11.51;98506.75;7700116;22;97367;-63
2021/10/22 09:52:44;;;;;;;;;1.00;1.00;;;;;32.66;11.61;98509.69;7700882;22;96976;-64
2021/10/22 09:56:01;;;;;;;;;1.00;1.00;;;;;32.42;11.83;98515.69;7699448;22;96643;-63
2021/10/22 09:59:06;;;;;;;;;1.00;1.00;;;;;32.47;11.46;98506.19;7700786;22;96550;-64
2021/10/22 10:02:11;;;;;;;;;2.00;2.00;;;;;32.20;11.93;98508.16;7673050;22;96801;-63
2021/10/22 10:05:16;;;;;;;;;2.00;2.00;;;;;32.02;12.07;98507.81;7698691;22;97659;-64
2021/10/22 10:08:21;;;;;;;;;3.00;3.00;;;;;32.09;12.09;98493.19;7700196;22;97426;-63
2021/10/22 10:11:25;;;;;;;;;1.00;1.00;;;;;31.86;11.87;98493.22;7672985;22;96663;-65
2021/10/22 10:14:29;;;;;;;;;2.00;1.00;;;;;31.24;12.28;98494.38;7698864;22;97261;-64
2021/10/22 10:17:35;;;;;;;;;1.00;1.00;;;;;31.38;12.20;98487.13;7701282;22;96608;-63
2021/10/22 10:20:39;;;;;;;;;2.00;1.50;;;;;31.31;12.41;98480.63;7671213;22;96672;-63
2021/10/22 10:23:45;;;;;;;;;1.00;1.00;;;;;31.51;12.21;98498.91;7699578;22;96554;-63
2021/10/22 10:27:05;;;;;;;;;1.00;1.00;;;;;30.77;13.17;98486.22;7699293;22;97375;-65
2021/10/22 10:30:13;;;;;;;;;1.00;1.00;;;;;30.94;13.44;98475.47;7671353;22;97891;-63
2021/10/22 10:33:33;;;;;;;;;1.00;1.00;;;;;31.24;13.22;98488.81;7700910;22;96280;-63
2021/10/22 10:36:47;;;;;;;;;1.00;1.00;;;;;30.74;13.63;98467.50;7699501;22;96406;-65
2021/10/22 10:40:12;;;;;;;;;1.00;1.00;;;;;31.03;13.51;98480.88;7700833;22;97415;-64
2021/10/22 10:43:23;;;;;;;;;2.00;1.00;;;;;30.78;14.21;98463.59;7697215;22;96896;-63
2021/10/22 10:46:33;;;;;;;;;1.25;1.25;;;;;31.14;13.84;98469.91;7670836;22;96813;-63
2021/10/22 10:49:58;;;;;;;;;1.00;1.00;;;;;30.90;14.13;98451.50;7696180;22;98502;-63
2021/10/22 10:53:01;;;;;;;;;2.00;2.00;;;;;31.08;14.14;98438.00;7692617;22;97110;-64
2021/10/22 10:56:08;;;;;;;;;1.25;1.25;;;;;30.95;14.09;98442.88;7698719;22;97308;-65
2021/10/22 10:59:11;;;;;;;;;2.00;2.00;;;;;31.02;14.11;98433.88;7699508;22;97315;-65
2021/10/22 11:02:14;;;;;;;;;2.00;2.00;;;;;31.13;13.95;98426.56;7672272;22;96915;-63
2021/10/22 11:06:06;;;;;;;;;2.80;2.00;;;;;31.22;13.43;98432.69;7646081;22;96884;-64
2021/10/22 11:09:10;;;;;;;;;2.00;2.00;;;;;31.01;13.43;98418.31;7659350;22;98374;-63
2021/10/22 11:12:14;;;;;;;;;1.00;1.00;;;;;30.66;13.95;98430.34;7700065;22;97374;-65
2021/10/22 11:15:36;;;;;;;;;1.00;1.00;;;;;30.42;13.59;98422.22;7698620;22;97326;-64
2021/10/22 11:18:40;;;;;;;;;2.00;2.00;;;;;30.26;13.16;98416.69;7670576;22;98637;-63
2021/10/22 11:21:46;;;;;;;;;2.00;1.00;;;;;29.96;13.63;98429.47;7671020;22;97757;-64
2021/10/22 11:24:49;;;;;;;;;1.75;1.75;;;;;29.78;13.88;98406.81;7699376;22;96862;-66
2021/10/22 11:28:02;;;;;;;;;1.20;1.00;;;;;29.64;14.22;98417.56;7671683;22;97665;-66
2021/10/22 11:31:05;;;;;;;;;2.00;2.00;;;;;29.60;13.91;98400.00;7700075;22;97441;-65
2021/10/22 11:34:13;;;;;;;;;1.00;1.00;;;;;29.60;14.02;98408.34;7671166;22;96868;-64
2021/10/22 11:37:19;;;;;;;;;1.00;1.00;;;;;29.55;14.39;98397.50;7700500;22;96978;-64
2021/10/22 11:40:26;;;;;;;;;2.00;1.00;;;;;29.40;14.18;98392.75;7700647;22;96626;-64
2021/10/22 11:43:31;;;;;;;;;2.00;2.00;;;;;28.98;14.65;98378.53;7700039;22;96434;-65
2021/10/22 11:46:45;;;;;;;;;0.20;0.20;;;;;28.84;14.88;98378.91;7699556;22;96575;-65
2021/10/22 11:49:49;;;;;;;;;1.00;1.00;;;;;28.81;14.88;98383.22;7701810;22;97222;-65
2021/10/22 11:53:00;;;;;;;;;1.00;1.00;;;;;28.53;15.39;98381.56;7701133;22;96530;-64
2021/10/22 11:56:04;;;;;;;;;1.00;0.60;;;;;28.64;14.98;98368.78;7675184;22;96996;-66
2021/10/22 11:59:09;;;;;;;;;1.00;1.00;;;;;28.43;15.62;98375.34;7702554;22;96365;-64
2021/10/22 12:02:14;;;;;;;;;1.40;1.00;;;;;28.24;15.54;98374.38;7702318;22;96528;-65
2021/10/22 12:05:17;;;;;;;;;3.00;1.00;;;;;28.09;16.03;98363.97;7673743;22;96728;-64
2021/10/22 12:08:20;;;;;;;;;1.00;1.00;;;;;28.12;16.21;98369.66;7699338;22;96645;-64
2021/10/22 12:11:25;;;;;;;;;1.60;1.60;;;;;27.91;16.05;98361.44;7704210;22;97208;-65
2021/10/22 12:14:37;;;;;;;;;1.00;1.00;;;;;27.58;16.58;98366.31;7699762;22;97356;-64
2021/10/22 12:17:42;;;;;;;;;2.00;1.00;;;;;27.60;16.49;98363.22;7672485;22;98434;-64
2021/10/22 12:20:46;;;;;;;;;2.00;1.00;;;;;27.41;16.44;98361.78;7674093;22;96519;-65
2021/10/22 12:23:56;;;;;;;;;1.20;1.20;;;;;27.31;16.11;98359.47;7673989;22;98307;-64
2021/10/22 12:27:19;;;;;;;;;1.00;1.00;;;;;27.10;16.52;98347.66;7700858;22;97122;-65
2021/10/22 12:30:25;;;;;;;;;0.25;0.25;;;;;27.23;16.51;98335.47;7675707;22;99493;-65
2021/10/22 12:33:28;;;;;;;;;0.20;0.20;;;;;26.76;16.33;98334.19;7705085;22;96789;-64
2021/10/22 12:36:32;;;;;;;;;1.00;1.00;;;;;26.59;16.68;98330.44;7702357;22;96957;-64
2021/10/22 12:39:41;;;;;;;;;2.00;2.00;;;;;26.64;17.09;98321.09;7670712;22;97720;-65
2021/10/22 12:42:45;;;;;;;;;2.40;2.40;;;;;26.62;16.97;98317.91;7703338;22;96518;-65
2021/10/22 12:45:53;;;;;;;;;1.60;1.60;;;;;26.58;16.43;98316.97;7702924;22;96982;-64
2021/10/22 12:48:57;;;;;;;;;2.20;2.00;;;;;26.30;16.62;98314.75;7703774;22;96408;-65
2021/10/22 12:52:03;;;;;;;;;2.00;2.00;;;;;26.04;16.92;98332.69;7699315;22;97263;-65
2021/10/22 12:55:19;;;;;;;;;1.00;1.00;;;;;25.83;16.60;98294.00;7702286;22;96777;-65
2021/10/22 12:58:24;;;;;;;;;1.00;1.00;;;;;25.75;17.05;98323.28;7701546;22;96669;-65
2021/10/22 13:01:33;;;;;;;;;1.00;1.00;;;;;25.60;16.93;98314.78;7698990;22;96880;-65
2021/10/22 13:04:37;;;;;;;;;2.00;2.00;;;;;25.67;17.04;98312.28;7699409;22;96775;-64
2021/10/22 13:07:48;;;;;;;;;1.00;1.00;;;;;25.48;17.33;98315.44;7697773;22;96912;-64
2021/10/22 13:10:58;;;;;;;;;2.00;2.00;;;;;25.11;17.31;98317.09;7699769;22;97340;-64
2021/10/22 13:20:44;;;;;;;;;2.00;1.00;;;;;24.80;17.65;98317.31;7695695;22;97040;-65
2021/10/22 13:23:47;;;;;;;;;1.00;1.00;;;;;24.60;18.08;98324.34;7693421;22;96918;-66
2021/10/22 13:26:51;;;;;;;;;1.00;1.00;;;;;24.19;18.55;98314.97;7697708;22;97054;-65
2021/10/22 13:29:57;;;;;;;;;3.00;1.40;;;;;24.09;18.46;98313.34;7666344;22;99846;-66
2021/10/22 13:33:04;;;;;;;;;3.00;2.00;;;;;23.93;18.21;98310.25;7698860;22;96928;-66
2021/10/22 13:36:08;;;;;;;;;1.00;1.00;;;;;23.71;18.99;98318.63;7669003;22;97990;-65
2021/10/22 13:39:11;;;;;;;;;2.00;1.00;;;;;23.42;18.98;98308.16;7697054;22;97352;-65
2021/10/22 13:42:16;;;;;;;;;2.50;2.00;;;;;23.39;19.20;98302.50;7696448;22;96834;-65
2021/10/22 13:45:19;;;;;;;;;1.00;1.00;;;;;23.53;19.45;98322.47;7644764;22;96939;-66
2021/10/22 13:48:24;;;;;;;;;1.80;1.00;;;;;23.32;19.75;98303.75;7701139;22;97007;-65
2021/10/22 13:51:27;;;;;;;;;4.00;2.00;;;;;23.40;19.64;98326.13;7673044;22;99367;-65
2021/10/22 13:54:30;;;;;;;;;3.00;3.00;;;;;23.32;19.70;98316.69;7672322;22;96463;-65
2021/10/22 13:57:34;;;;;;;;;3.00;3.00;;;;;23.29;20.30;98317.34;7701918;22;96724;-66
2021/10/22 14:00:38;;;;;;;;;2.40;2.00;;;;;23.23;20.06;98322.19;7700998;22;97400;-65
2021/10/22 14:03:43;;;;;;;;;2.00;2.00;;;;;22.87;20.60;98318.78;7698452;22;96833;-65
2021/10/22 14:06:46;;;;;;;;;2.00;2.00;;;;;22.79;20.44;98323.09;7700796;22;97391;-66
2021/10/22 14:09:54;;;;;;;;;1.00;1.00;;;;;22.65;20.85;98322.34;7698836;22;98909;-65
2021/10/22 14:13:05;;;;;;;;;1.00;1.00;;;;;22.40;20.22;98332.03;7695598;22;97217;-65
2021/10/22 14:29:28;;;;;;;;;1.00;1.00;;;;;21.50;20.85;98324.72;7696515;22;97680;-66
2021/10/22 14:32:33;;;;;;;;;1.80;1.20;;;;;21.53;20.84;98331.53;7673074;22;97211;-65
2021/10/22 14:35:38;;;;;;;;;1.00;1.00;;;;;21.59;21.12;98339.34;7671914;22;96613;-66
2021/10/22 14:38:45;;;;;;;;;1.00;1.00;;;;;21.63;20.84;98336.81;7674712;22;96633;-65
2021/10/22 14:41:48;;;;;;;;;1.00;1.00;;;;;21.59;20.82;98330.31;7699740;22;97874;-65
2021/10/22 14:44:54;;;;;;;;;0.60;0.60;;;;;21.47;20.79;98319.03;7670323;22;96639;-65
2021/10/22 14:48:01;;;;;;;;;0.20;0.20;;;;;21.35;20.58;98333.28;7698189;22;97518;-66
2021/10/22 14:51:08;;;;;;;;;1.00;0.00;;;;;21.03;20.20;98333.31;7696216;22;97046;-66
2021/10/22 14:54:14;;;;;;;;;1.00;1.00;;;;;20.93;20.37;98338.97;7700262;22;96412;-65
2021/10/22 14:57:18;;;;;;;;;1.00;1.00;;;;;20.54;20.94;98344.88;7669337;22;98097;-67
2021/10/22 15:00:23;;;;;;;;;2.00;1.80;;;;;20.38;21.15;98329.84;7699455;22;96298;-66
2021/10/22 15:03:27;;;;;;;;;1.80;1.00;;;;;20.25;21.50;98332.19;7696721;22;96745;-66